Westwood Robson — A8PD8 — position and weather

sailwx.info

Track history (hours):
 
Tides and Currents Weather Stations Pressure Air Temp Water Temp Dewpoint Dewpoint Depression Visibility Wind Speed Wind Dir Waves Ship Positions

Westwood Robson

Last reported at 2018-May-31 17:35 UTC. Time now 2018-Jun-21 04:51 UTC.
Position N 32°45' W 117°43'.
Warning: this ship's position is 20 days out of date.

Length 209 m; draft 8.8 m.

Type: Ship (hazmat cat A). MMSI: 636017154.

Date/timePositionNaut miles runAvg speedWind from/ knotsBaromVisibWave heightAir tempDewpointWater temp
2018-May-31 17:35N 32°45' W 117°43'318.1
2018-May-31 17:25N 32°48' W 117°45'1318.1
2018-May-31 16:42N 32°59' W 117°53'318.2
2018-May-31 16:30N 33°02' W 117°55'3615.1
2018-May-31 14:09N 33°34' W 118°13'312.0
2018-May-31 13:53N 33°37' W 118°14'411.7
2018-May-31 13:31N 33°41' W 118°15'2 4.2
2018-May-31 12:58N 33°44' W 118°16'0 0.0
2018-May-31 11:37N 33°44' W 118°16'0 0.0
2018-May-31 11:28N 33°44' W 118°16'0 0.0
2018-May-31 10:58N 33°44' W 118°16'0 0.0
2018-May-31 10:28N 33°44' W 118°16'0 0.0
2018-May-31 09:58N 33°44' W 118°16'0 0.0
2018-May-31 09:28N 33°44' W 118°16'0 0.0
2018-May-31 08:58N 33°44' W 118°16'0 0.0
2018-May-31 08:28N 33°44' W 118°16'0 0.0
2018-May-31 07:19N 33°44' W 118°16'0 0.0
2018-May-31 02:52N 33°44' W 118°16'0 0.0
2018-May-31 02:28N 33°44' W 118°16'0 0.0
2018-May-31 01:58N 33°44' W 118°16'0 0.0
2018-May-31 01:28N 33°44' W 118°16'0 0.0
2018-May-31 00:55N 33°44' W 118°16'0 0.0
2018-May-31 00:28N 33°44' W 118°16'0 0.0
2018-May-30 23:58N 33°44' W 118°16'0 0.0
2018-May-30 23:28N 33°44' W 118°16'0 0.0
2018-May-30 22:58N 33°44' W 118°16'0 0.0
2018-May-30 22:25N 33°44' W 118°16'0 0.0
2018-May-30 21:58N 33°44' W 118°16'0 0.0
2018-May-30 21:28N 33°44' W 118°16'0 0.0
2018-May-30 20:34N 33°44' W 118°16'0 0.0
2018-May-30 20:25N 33°44' W 118°16'0 0.0
2018-May-30 19:58N 33°44' W 118°16'0 0.0
2018-May-30 19:25N 33°44' W 118°16'0 0.0
2018-May-30 18:52N 33°44' W 118°16'0 0.0
2018-May-30 18:25N 33°44' W 118°16'0 0.0
2018-May-30 17:52N 33°44' W 118°16'0 0.0
2018-May-30 17:28N 33°44' W 118°16'0 0.0
2018-May-30 16:58N 33°44' W 118°16'0 0.0
2018-May-30 16:16N 33°44' W 118°16'0 0.0
2018-May-30 15:55N 33°44' W 118°16'0 0.0
2018-May-30 15:28N 33°44' W 118°16'0 0.0
2018-May-30 14:52N 33°44' W 118°16'0 0.0
2018-May-30 14:28N 33°44' W 118°16'0 0.0
2018-May-30 13:58N 33°44' W 118°16'0 0.0
2018-May-30 13:28N 33°44' W 118°16'0 0.0
2018-May-30 12:58N 33°44' W 118°16'0 0.1
2018-May-30 12:30N 33°44' W 118°16'1 2.9
2018-May-30 12:00N 33°42' W 118°15'18 7.5
2018-May-30 09:34N 33°44' W 118°37'311.5
2018-May-30 09:20N 33°45' W 118°40'411.4
2018-May-30 08:59N 33°47' W 118°44'611.4
2018-May-30 08:30N 33°50' W 118°50'611.4
2018-May-30 08:00N 33°53' W 118°56'611.4
2018-May-30 07:30N 33°56' W 119°02'714.2
2018-May-30 07:00N 33°59' W 119°09'815.0
2018-May-30 06:29N 34°05' W 119°15'4 7.0
2018-May-30 05:54N 34°09' W 119°12'0 0.0
2018-May-30 05:24N 34°09' W 119°12'0 0.0
2018-May-30 05:00N 34°09' W 119°12'0 0.0
2018-May-30 04:30N 34°09' W 119°12'0 0.0
2018-May-30 03:45N 34°09' W 119°12'0 0.0
2018-May-30 03:30N 34°09' W 119°12'0 0.0
2018-May-30 02:57N 34°09' W 119°12'0 0.0
2018-May-30 02:21N 34°09' W 119°12'0 0.0
2018-May-30 02:00N 34°09' W 119°12'0 0.0
2018-May-30 01:30N 34°09' W 119°12'0 0.0
2018-May-30 01:00N 34°09' W 119°12'0 0.0
2018-May-30 00:27N 34°09' W 119°12'0 0.0
2018-May-29 23:57N 34°09' W 119°12'0 0.0
2018-May-29 23:30N 34°09' W 119°12'0 0.0
2018-May-29 23:00N 34°09' W 119°12'0 0.0
2018-May-29 22:27N 34°09' W 119°12'0 0.0
2018-May-29 21:57N 34°09' W 119°12'0 0.0
2018-May-29 21:30N 34°09' W 119°12'0 0.0
2018-May-29 20:57N 34°09' W 119°12'0 0.0
2018-May-29 20:30N 34°09' W 119°12'0 0.0
2018-May-29 20:00N 34°09' W 119°12'0 0.0
2018-May-29 19:30N 34°09' W 119°12'0 0.0
2018-May-29 18:57N 34°09' W 119°12'0 0.0
2018-May-29 18:27N 34°09' W 119°12'0 0.0
2018-May-29 18:00N 34°09' W 119°12'0 0.0
2018-May-29 17:27N 34°09' W 119°12'0 0.0
2018-May-29 16:57N 34°09' W 119°12'0 0.0
2018-May-29 16:30N 34°09' W 119°12'0 0.0
2018-May-29 16:00N 34°09' W 119°12'0 0.0
2018-May-29 15:27N 34°09' W 119°12'0 0.0
2018-May-29 15:00N 34°09' W 119°12'0 0.0
2018-May-29 14:27N 34°09' W 119°12'0 0.0
2018-May-29 14:00N 34°09' W 119°12'0 0.8
2018-May-29 13:30N 34°09' W 119°13'3 5.3
2018-May-29 12:59N 34°06' W 119°15'3 6.2
2018-May-29 12:28N 34°04' W 119°13'511.7
2018-May-29 12:00N 34°01' W 119°08'713.2
2018-May-29 11:30N 33°58' W 119°01'714.3
2018-May-29 11:00N 33°54' W 118°53'714.2
2018-May-29 10:30N 33°51' W 118°46'2614.4
2018-May-29 08:40N 33°38' W 118°18'310.7
2018-May-29 08:25N 33°38' W 118°14'3013.4
2018-May-29 06:10N 33°11' W 117°59'316.0
2018-May-29 06:00N 33°08' W 117°57'816.0
2018-May-29 05:30N 33°01' W 117°54'1016.2
2018-May-29 04:53N 32°52' W 117°49'615.6
2018-May-29 04:30N 32°46' W 117°46'1116.0
2018-May-29 03:50N 32°37' W 117°40'516.0
2018-May-29 03:30N 32°32' W 117°38'  
Track history (hours):
 
Tides and Currents Weather Stations Pressure Air Temp Water Temp Dewpoint Dewpoint Depression Visibility Wind Speed Wind Dir Waves Ship Positions

Westwood Robson

Last reported at 2018-May-31 17:35 UTC. Time now 2018-Jun-21 04:51 UTC.
Position N 32°45' W 117°43'.
Warning: this ship's position is 20 days out of date.

Length 209 m; draft 8.8 m.

Type: Ship (hazmat cat A). MMSI: 636017154.

Date/timePositionNaut miles runAvg speedWind from/ knotsBaromVisibWave heightAir tempDewpointWater temp
2018-May-31 17:35N 32°45' W 117°43'318.1
2018-May-31 17:25N 32°48' W 117°45'1318.1
2018-May-31 16:42N 32°59' W 117°53'318.2
2018-May-31 16:30N 33°02' W 117°55'3615.1
2018-May-31 14:09N 33°34' W 118°13'312.0
2018-May-31 13:53N 33°37' W 118°14'411.7
2018-May-31 13:31N 33°41' W 118°15'2 4.2
2018-May-31 12:58N 33°44' W 118°16'0 0.0
2018-May-31 11:37N 33°44' W 118°16'0 0.0
2018-May-31 11:28N 33°44' W 118°16'0 0.0
2018-May-31 10:58N 33°44' W 118°16'0 0.0
2018-May-31 10:28N 33°44' W 118°16'0 0.0
2018-May-31 09:58N 33°44' W 118°16'0 0.0
2018-May-31 09:28N 33°44' W 118°16'0 0.0
2018-May-31 08:58N 33°44' W 118°16'0 0.0
2018-May-31 08:28N 33°44' W 118°16'0 0.0
2018-May-31 07:19N 33°44' W 118°16'0 0.0
2018-May-31 02:52N 33°44' W 118°16'0 0.0
2018-May-31 02:28N 33°44' W 118°16'0 0.0
2018-May-31 01:58N 33°44' W 118°16'0 0.0
2018-May-31 01:28N 33°44' W 118°16'0 0.0
2018-May-31 00:55N 33°44' W 118°16'0 0.0
2018-May-31 00:28N 33°44' W 118°16'0 0.0
2018-May-30 23:58N 33°44' W 118°16'0 0.0
2018-May-30 23:28N 33°44' W 118°16'0 0.0
2018-May-30 22:58N 33°44' W 118°16'0 0.0
2018-May-30 22:25N 33°44' W 118°16'0 0.0
2018-May-30 21:58N 33°44' W 118°16'0 0.0
2018-May-30 21:28N 33°44' W 118°16'0 0.0
2018-May-30 20:34N 33°44' W 118°16'0 0.0
2018-May-30 20:25N 33°44' W 118°16'0 0.0
2018-May-30 19:58N 33°44' W 118°16'0 0.0
2018-May-30 19:25N 33°44' W 118°16'0 0.0
2018-May-30 18:52N 33°44' W 118°16'0 0.0
2018-May-30 18:25N 33°44' W 118°16'0 0.0
2018-May-30 17:52N 33°44' W 118°16'0 0.0
2018-May-30 17:28N 33°44' W 118°16'0 0.0
2018-May-30 16:58N 33°44' W 118°16'0 0.0
2018-May-30 16:16N 33°44' W 118°16'0 0.0
2018-May-30 15:55N 33°44' W 118°16'0 0.0
2018-May-30 15:28N 33°44' W 118°16'0 0.0
2018-May-30 14:52N 33°44' W 118°16'0 0.0
2018-May-30 14:28N 33°44' W 118°16'0 0.0
2018-May-30 13:58N 33°44' W 118°16'0 0.0
2018-May-30 13:28N 33°44' W 118°16'0 0.0
2018-May-30 12:58N 33°44' W 118°16'0 0.1
2018-May-30 12:30N 33°44' W 118°16'1 2.9
2018-May-30 12:00N 33°42' W 118°15'18 7.5
2018-May-30 09:34N 33°44' W 118°37'311.5
2018-May-30 09:20N 33°45' W 118°40'411.4
2018-May-30 08:59N 33°47' W 118°44'611.4
2018-May-30 08:30N 33°50' W 118°50'611.4
2018-May-30 08:00N 33°53' W 118°56'611.4
2018-May-30 07:30N 33°56' W 119°02'714.2
2018-May-30 07:00N 33°59' W 119°09'815.0
2018-May-30 06:29N 34°05' W 119°15'4 7.0
2018-May-30 05:54N 34°09' W 119°12'0 0.0
2018-May-30 05:24N 34°09' W 119°12'0 0.0
2018-May-30 05:00N 34°09' W 119°12'0 0.0
2018-May-30 04:30N 34°09' W 119°12'0 0.0
2018-May-30 03:45N 34°09' W 119°12'0 0.0
2018-May-30 03:30N 34°09' W 119°12'0 0.0
2018-May-30 02:57N 34°09' W 119°12'0 0.0
2018-May-30 02:21N 34°09' W 119°12'0 0.0
2018-May-30 02:00N 34°09' W 119°12'0 0.0
2018-May-30 01:30N 34°09' W 119°12'0 0.0
2018-May-30 01:00N 34°09' W 119°12'0 0.0
2018-May-30 00:27N 34°09' W 119°12'0 0.0
2018-May-29 23:57N 34°09' W 119°12'0 0.0
2018-May-29 23:30N 34°09' W 119°12'0 0.0
2018-May-29 23:00N 34°09' W 119°12'0 0.0
2018-May-29 22:27N 34°09' W 119°12'0 0.0
2018-May-29 21:57N 34°09' W 119°12'0 0.0
2018-May-29 21:30N 34°09' W 119°12'0 0.0
2018-May-29 20:57N 34°09' W 119°12'0 0.0
2018-May-29 20:30N 34°09' W 119°12'0 0.0
2018-May-29 20:00N 34°09' W 119°12'0 0.0
2018-May-29 19:30N 34°09' W 119°12'0 0.0
2018-May-29 18:57N 34°09' W 119°12'0 0.0
2018-May-29 18:27N 34°09' W 119°12'0 0.0
2018-May-29 18:00N 34°09' W 119°12'0 0.0
2018-May-29 17:27N 34°09' W 119°12'0 0.0
2018-May-29 16:57N 34°09' W 119°12'0 0.0
2018-May-29 16:30N 34°09' W 119°12'0 0.0
2018-May-29 16:00N 34°09' W 119°12'0 0.0
2018-May-29 15:27N 34°09' W 119°12'0 0.0
2018-May-29 15:00N 34°09' W 119°12'0 0.0
2018-May-29 14:27N 34°09' W 119°12'0 0.0
2018-May-29 14:00N 34°09' W 119°12'0 0.8
2018-May-29 13:30N 34°09' W 119°13'3 5.3
2018-May-29 12:59N 34°06' W 119°15'3 6.2
2018-May-29 12:28N 34°04' W 119°13'511.7
2018-May-29 12:00N 34°01' W 119°08'713.2
2018-May-29 11:30N 33°58' W 119°01'714.3
2018-May-29 11:00N 33°54' W 118°53'714.2
2018-May-29 10:30N 33°51' W 118°46'2614.4
2018-May-29 08:40N 33°38' W 118°18'310.7
2018-May-29 08:25N 33°38' W 118°14'3013.4
2018-May-29 06:10N 33°11' W 117°59'316.0
2018-May-29 06:00N 33°08' W 117°57'816.0
2018-May-29 05:30N 33°01' W 117°54'1016.2
2018-May-29 04:53N 32°52' W 117°49'615.6
2018-May-29 04:30N 32°46' W 117°46'1116.0
2018-May-29 03:50N 32°37' W 117°40'516.0
2018-May-29 03:30N 32°32' W 117°38'  

Dump ship's entire track history